sensor_id;sensor_type;location;lat;lon;timestamp;temperature;humidity
20479;DHT22;10398;52.490;13.434;2022-08-03T00:01:04;22.10;98.80
20479;DHT22;10398;52.490;13.434;2022-08-03T00:03:30;22.10;99.10
20479;DHT22;10398;52.490;13.434;2022-08-03T00:05:55;22.10;98.90
20479;DHT22;10398;52.490;13.434;2022-08-03T00:08:21;22.10;99.10
20479;DHT22;10398;52.490;13.434;2022-08-03T00:10:46;22.10;99.00
20479;DHT22;10398;52.490;13.434;2022-08-03T00:13:12;22.20;99.20
20479;DHT22;10398;52.490;13.434;2022-08-03T00:15:40;22.20;99.30
20479;DHT22;10398;52.490;13.434;2022-08-03T00:18:06;22.20;99.40
20479;DHT22;10398;52.490;13.434;2022-08-03T00:20:32;22.20;99.30
20479;DHT22;10398;52.490;13.434;2022-08-03T00:22:57;22.20;99.30
20479;DHT22;10398;52.490;13.434;2022-08-03T00:25:23;22.20;99.50
20479;DHT22;10398;52.490;13.434;2022-08-03T00:27:49;22.20;99.60
20479;DHT22;10398;52.490;13.434;2022-08-03T00:30:14;22.20;99.70
20479;DHT22;10398;52.490;13.434;2022-08-03T00:32:40;22.20;99.90
20479;DHT22;10398;52.490;13.434;2022-08-03T00:35:06;22.10;99.60
20479;DHT22;10398;52.490;13.434;2022-08-03T00:37:32;22.10;99.80
20479;DHT22;10398;52.490;13.434;2022-08-03T00:39:58;22.20;99.90
20479;DHT22;10398;52.490;13.434;2022-08-03T00:42:23;22.10;99.90
20479;DHT22;10398;52.490;13.434;2022-08-03T00:44:49;22.10;99.90
20479;DHT22;10398;52.490;13.434;2022-08-03T00:47:14;22.10;99.90
20479;DHT22;10398;52.490;13.434;2022-08-03T00:49:40;22.10;99.90
20479;DHT22;10398;52.490;13.434;2022-08-03T00:52:08;22.00;99.90
20479;DHT22;10398;52.490;13.434;2022-08-03T00:54:38;22.00;99.90
20479;DHT22;10398;52.490;13.434;2022-08-03T00:57:04;21.90;99.90
20479;DHT22;10398;52.490;13.434;2022-08-03T00:59:30;21.90;99.90
20479;DHT22;10398;52.490;13.434;2022-08-03T01:01:56;21.90;99.90
20479;DHT22;10398;52.490;13.434;2022-08-03T01:04:22;21.90;99.90
20479;DHT22;10398;52.490;13.434;2022-08-03T01:07:07;21.90;99.90
20479;DHT22;10398;52.490;13.434;2022-08-03T01:10:02;21.90;99.90
20479;DHT22;10398;52.490;13.434;2022-08-03T01:15:24;21.90;99.90
20479;DHT22;10398;52.490;13.434;2022-08-03T01:20:21;22.00;99.90
20479;DHT22;10398;52.490;13.434;2022-08-03T01:30:54;22.00;99.90
20479;DHT22;10398;52.490;13.434;2022-08-03T01:33:30;22.00;99.90
20479;DHT22;10398;52.490;13.434;2022-08-03T01:36:05;21.90;99.90
20479;DHT22;10398;52.490;13.434;2022-08-03T01:38:33;21.90;99.90
20479;DHT22;10398;52.490;13.434;2022-08-03T01:41:21;22.00;99.90
20479;DHT22;10398;52.490;13.434;2022-08-03T01:43:50;22.00;99.90
20479;DHT22;10398;52.490;13.434;2022-08-03T01:46:18;22.00;99.90
20479;DHT22;10398;52.490;13.434;2022-08-03T01:48:47;22.00;99.90
20479;DHT22;10398;52.490;13.434;2022-08-03T01:51:14;22.00;99.90
20479;DHT22;10398;52.490;13.434;2022-08-03T01:53:41;22.00;99.90
20479;DHT22;10398;52.490;13.434;2022-08-03T01:56:11;22.00;99.90
20479;DHT22;10398;52.490;13.434;2022-08-03T01:58:37;22.00;99.90
20479;DHT22;10398;52.490;13.434;2022-08-03T02:01:05;22.00;99.90
20479;DHT22;10398;52.490;13.434;2022-08-03T02:03:34;22.00;99.90
20479;DHT22;10398;52.490;13.434;2022-08-03T02:06:01;22.00;99.90
20479;DHT22;10398;52.490;13.434;2022-08-03T02:08:27;22.00;99.90
20479;DHT22;10398;52.490;13.434;2022-08-03T02:10:56;22.00;99.90
20479;DHT22;10398;52.490;13.434;2022-08-03T02:13:24;21.90;99.90
20479;DHT22;10398;52.490;13.434;2022-08-03T02:15:51;21.90;99.90
20479;DHT22;10398;52.490;13.434;2022-08-03T02:18:19;21.90;99.70
20479;DHT22;10398;52.490;13.434;2022-08-03T02:20:46;21.90;99.90
20479;DHT22;10398;52.490;13.434;2022-08-03T02:23:14;22.00;99.90
20479;DHT22;10398;52.490;13.434;2022-08-03T02:25:44;22.00;99.70
20479;DHT22;10398;52.490;13.434;2022-08-03T02:28:25;22.00;99.50
20479;DHT22;10398;52.490;13.434;2022-08-03T02:30:54;22.00;99.20
20479;DHT22;10398;52.490;13.434;2022-08-03T02:33:29;22.00;99.90
20479;DHT22;10398;52.490;13.434;2022-08-03T02:35:56;22.00;99.90
20479;DHT22;10398;52.490;13.434;2022-08-03T02:38:27;22.00;99.90
20479;DHT22;10398;52.490;13.434;2022-08-03T02:40:57;22.00;99.90
20479;DHT22;10398;52.490;13.434;2022-08-03T02:43:24;22.00;99.90
20479;DHT22;10398;52.490;13.434;2022-08-03T02:45:52;22.00;99.00
20479;DHT22;10398;52.490;13.434;2022-08-03T02:48:25;22.00;99.20
20479;DHT22;10398;52.490;13.434;2022-08-03T02:50:54;22.00;98.90
20479;DHT22;10398;52.490;13.434;2022-08-03T02:53:21;22.00;98.70
20479;DHT22;10398;52.490;13.434;2022-08-03T02:55:49;21.90;98.80
20479;DHT22;10398;52.490;13.434;2022-08-03T02:58:17;21.90;98.80
20479;DHT22;10398;52.490;13.434;2022-08-03T03:00:46;21.90;98.70
20479;DHT22;10398;52.490;13.434;2022-08-03T03:03:12;21.90;99.00
20479;DHT22;10398;52.490;13.434;2022-08-03T03:05:40;21.90;98.70
20479;DHT22;10398;52.490;13.434;2022-08-03T03:08:07;21.90;98.80
20479;DHT22;10398;52.490;13.434;2022-08-03T03:10:34;21.90;99.10
20479;DHT22;10398;52.490;13.434;2022-08-03T03:13:01;21.90;98.80
20479;DHT22;10398;52.490;13.434;2022-08-03T03:15:28;21.90;98.90
20479;DHT22;10398;52.490;13.434;2022-08-03T03:17:56;21.90;98.70
20479;DHT22;10398;52.490;13.434;2022-08-03T03:20:22;21.90;99.20
20479;DHT22;10398;52.490;13.434;2022-08-03T03:22:49;21.90;99.60
20479;DHT22;10398;52.490;13.434;2022-08-03T03:25:16;21.90;99.50
20479;DHT22;10398;52.490;13.434;2022-08-03T03:27:43;21.90;99.70
20479;DHT22;10398;52.490;13.434;2022-08-03T03:30:09;21.90;99.90
20479;DHT22;10398;52.490;13.434;2022-08-03T03:32:35;21.90;99.90
20479;DHT22;10398;52.490;13.434;2022-08-03T03:35:01;21.90;99.90
20479;DHT22;10398;52.490;13.434;2022-08-03T03:37:27;21.90;99.90
20479;DHT22;10398;52.490;13.434;2022-08-03T03:39:53;21.80;99.90
20479;DHT22;10398;52.490;13.434;2022-08-03T03:42:19;21.80;99.90
20479;DHT22;10398;52.490;13.434;2022-08-03T03:44:45;21.80;99.90
20479;DHT22;10398;52.490;13.434;2022-08-03T03:47:11;21.70;99.90
20479;DHT22;10398;52.490;13.434;2022-08-03T03:49:37;21.70;99.90
20479;DHT22;10398;52.490;13.434;2022-08-03T03:52:03;21.80;99.90
20479;DHT22;10398;52.490;13.434;2022-08-03T03:54:39;21.70;99.90
20479;DHT22;10398;52.490;13.434;2022-08-03T03:57:05;21.70;99.90
20479;DHT22;10398;52.490;13.434;2022-08-03T03:59:31;21.70;99.90
20479;DHT22;10398;52.490;13.434;2022-08-03T04:01:57;21.70;99.90
20479;DHT22;10398;52.490;13.434;2022-08-03T04:04:23;21.70;99.90
20479;DHT22;10398;52.490;13.434;2022-08-03T04:07:07;21.70;99.90
20479;DHT22;10398;52.490;13.434;2022-08-03T04:09:52;21.80;99.90
20479;DHT22;10398;52.490;13.434;2022-08-03T04:12:37;21.70;99.90
20479;DHT22;10398;52.490;13.434;2022-08-03T04:15:03;21.70;99.90
20479;DHT22;10398;52.490;13.434;2022-08-03T04:17:31;21.70;99.90
20479;DHT22;10398;52.490;13.434;2022-08-03T04:19:57;21.70;99.90
20479;DHT22;10398;52.490;13.434;2022-08-03T04:22:28;21.70;99.90
20479;DHT22;10398;52.490;13.434;2022-08-03T04:25:02;21.70;99.90
20479;DHT22;10398;52.490;13.434;2022-08-03T04:27:33;21.60;99.90
20479;DHT22;10398;52.490;13.434;2022-08-03T04:30:03;21.60;99.90
20479;DHT22;10398;52.490;13.434;2022-08-03T04:32:29;21.60;99.90
20479;DHT22;10398;52.490;13.434;2022-08-03T04:34:55;21.60;99.90
20479;DHT22;10398;52.490;13.434;2022-08-03T04:37:42;21.60;99.90
20479;DHT22;10398;52.490;13.434;2022-08-03T04:40:20;21.60;99.90
20479;DHT22;10398;52.490;13.434;2022-08-03T04:42:47;21.60;99.90
20479;DHT22;10398;52.490;13.434;2022-08-03T04:45:14;21.60;99.90
20479;DHT22;10398;52.490;13.434;2022-08-03T04:47:41;21.60;99.90
20479;DHT22;10398;52.490;13.434;2022-08-03T04:50:07;21.60;99.90
20479;DHT22;10398;52.490;13.434;2022-08-03T04:52:34;21.60;99.90
20479;DHT22;10398;52.490;13.434;2022-08-03T04:54:59;21.60;99.90
20479;DHT22;10398;52.490;13.434;2022-08-03T04:57:25;21.60;99.90
20479;DHT22;10398;52.490;13.434;2022-08-03T04:59:51;21.60;99.90
20479;DHT22;10398;52.490;13.434;2022-08-03T05:02:19;21.70;99.90
20479;DHT22;10398;52.490;13.434;2022-08-03T05:04:45;21.60;99.90
20479;DHT22;10398;52.490;13.434;2022-08-03T05:07:15;21.70;99.90
20479;DHT22;10398;52.490;13.434;2022-08-03T05:09:41;21.70;99.90
20479;DHT22;10398;52.490;13.434;2022-08-03T05:12:07;21.70;99.90
20479;DHT22;10398;52.490;13.434;2022-08-03T05:14:33;21.80;99.90
20479;DHT22;10398;52.490;13.434;2022-08-03T05:17:01;21.80;99.90
20479;DHT22;10398;52.490;13.434;2022-08-03T05:19:26;21.80;99.90
20479;DHT22;10398;52.490;13.434;2022-08-03T05:21:52;21.80;99.90
20479;DHT22;10398;52.490;13.434;2022-08-03T05:24:18;21.80;99.90
20479;DHT22;10398;52.490;13.434;2022-08-03T05:26:44;21.90;99.90
20479;DHT22;10398;52.490;13.434;2022-08-03T05:29:09;21.90;99.90
20479;DHT22;10398;52.490;13.434;2022-08-03T05:31:35;22.00;99.90
20479;DHT22;10398;52.490;13.434;2022-08-03T05:34:01;22.00;99.90
20479;DHT22;10398;52.490;13.434;2022-08-03T05:36:26;22.10;99.90
20479;DHT22;10398;52.490;13.434;2022-08-03T05:38:52;22.10;99.90
20479;DHT22;10398;52.490;13.434;2022-08-03T05:41:18;22.20;99.90
20479;DHT22;10398;52.490;13.434;2022-08-03T05:43:44;22.30;99.90
20479;DHT22;10398;52.490;13.434;2022-08-03T05:46:09;22.30;99.60
20479;DHT22;10398;52.490;13.434;2022-08-03T05:48:35;22.30;99.40
20479;DHT22;10398;52.490;13.434;2022-08-03T05:51:00;22.40;99.20
20479;DHT22;10398;52.490;13.434;2022-08-03T05:53:26;22.50;99.40
20479;DHT22;10398;52.490;13.434;2022-08-03T05:55:54;22.50;99.40
20479;DHT22;10398;52.490;13.434;2022-08-03T05:58:19;22.60;99.30
20479;DHT22;10398;52.490;13.434;2022-08-03T06:00:45;22.60;98.60
20479;DHT22;10398;52.490;13.434;2022-08-03T06:03:10;22.60;98.40
20479;DHT22;10398;52.490;13.434;2022-08-03T06:05:36;22.70;97.90
20479;DHT22;10398;52.490;13.434;2022-08-03T06:08:03;22.70;97.90
20479;DHT22;10398;52.490;13.434;2022-08-03T06:10:29;22.80;98.00
20479;DHT22;10398;52.490;13.434;2022-08-03T06:12:55;22.80;98.00
20479;DHT22;10398;52.490;13.434;2022-08-03T06:15:20;22.90;97.20
20479;DHT22;10398;52.490;13.434;2022-08-03T06:17:50;22.90;97.30
20479;DHT22;10398;52.490;13.434;2022-08-03T06:20:17;23.00;97.60
20479;DHT22;10398;52.490;13.434;2022-08-03T06:22:44;23.00;97.10
20479;DHT22;10398;52.490;13.434;2022-08-03T06:25:10;23.10;97.10
20479;DHT22;10398;52.490;13.434;2022-08-03T06:27:35;23.10;96.30
20479;DHT22;10398;52.490;13.434;2022-08-03T06:30:05;23.20;96.30
20479;DHT22;10398;52.490;13.434;2022-08-03T06:32:31;23.20;96.00
20479;DHT22;10398;52.490;13.434;2022-08-03T06:34:58;23.30;96.20
20479;DHT22;10398;52.490;13.434;2022-08-03T06:37:24;23.40;95.20
20479;DHT22;10398;52.490;13.434;2022-08-03T06:39:51;23.40;95.00
20479;DHT22;10398;52.490;13.434;2022-08-03T06:42:17;23.50;94.60
20479;DHT22;10398;52.490;13.434;2022-08-03T06:44:43;23.50;94.50
20479;DHT22;10398;52.490;13.434;2022-08-03T06:47:08;23.60;93.90
20479;DHT22;10398;52.490;13.434;2022-08-03T06:49:34;23.70;94.10
20479;DHT22;10398;52.490;13.434;2022-08-03T06:52:00;23.80;93.50
20479;DHT22;10398;52.490;13.434;2022-08-03T06:54:25;23.90;93.60
20479;DHT22;10398;52.490;13.434;2022-08-03T06:56:51;23.90;93.30
20479;DHT22;10398;52.490;13.434;2022-08-03T06:59:16;24.00;93.40
20479;DHT22;10398;52.490;13.434;2022-08-03T07:01:42;24.00;93.30
20479;DHT22;10398;52.490;13.434;2022-08-03T07:04:08;24.20;93.20
20479;DHT22;10398;52.490;13.434;2022-08-03T07:06:33;24.20;93.20
20479;DHT22;10398;52.490;13.434;2022-08-03T07:08:59;24.30;93.30
20479;DHT22;10398;52.490;13.434;2022-08-03T07:11:25;24.40;93.30
20479;DHT22;10398;52.490;13.434;2022-08-03T07:13:50;24.40;93.40
20479;DHT22;10398;52.490;13.434;2022-08-03T07:16:16;24.50;93.40
20479;DHT22;10398;52.490;13.434;2022-08-03T07:18:41;24.60;93.00
20479;DHT22;10398;52.490;13.434;2022-08-03T07:21:07;24.60;93.20
20479;DHT22;10398;52.490;13.434;2022-08-03T07:23:35;24.70;92.90
20479;DHT22;10398;52.490;13.434;2022-08-03T07:26:00;24.80;93.30
20479;DHT22;10398;52.490;13.434;2022-08-03T07:28:26;24.90;93.00
20479;DHT22;10398;52.490;13.434;2022-08-03T07:30:52;25.00;92.20
20479;DHT22;10398;52.490;13.434;2022-08-03T07:33:18;25.10;92.10
20479;DHT22;10398;52.490;13.434;2022-08-03T07:35:43;25.20;91.90
20479;DHT22;10398;52.490;13.434;2022-08-03T07:38:09;25.30;91.80
20479;DHT22;10398;52.490;13.434;2022-08-03T07:40:34;25.40;91.90
20479;DHT22;10398;52.490;13.434;2022-08-03T07:43:00;25.50;91.60
20479;DHT22;10398;52.490;13.434;2022-08-03T07:45:28;25.50;91.40
20479;DHT22;10398;52.490;13.434;2022-08-03T07:47:54;25.60;91.50
20479;DHT22;10398;52.490;13.434;2022-08-03T07:50:20;25.60;91.20
20479;DHT22;10398;52.490;13.434;2022-08-03T07:52:46;25.60;91.50
20479;DHT22;10398;52.490;13.434;2022-08-03T07:55:22;25.70;91.50
20479;DHT22;10398;52.490;13.434;2022-08-03T07:58:08;25.80;91.60
20479;DHT22;10398;52.490;13.434;2022-08-03T08:00:34;25.90;90.80
20479;DHT22;10398;52.490;13.434;2022-08-03T08:03:00;26.00;90.40
20479;DHT22;10398;52.490;13.434;2022-08-03T08:05:26;26.10;90.90
20479;DHT22;10398;52.490;13.434;2022-08-03T08:07:52;26.20;91.10
20479;DHT22;10398;52.490;13.434;2022-08-03T08:10:18;26.20;90.80
20479;DHT22;10398;52.490;13.434;2022-08-03T08:12:44;26.20;91.00
20479;DHT22;10398;52.490;13.434;2022-08-03T08:15:09;26.30;90.70
20479;DHT22;10398;52.490;13.434;2022-08-03T08:20:20;26.30;89.80
20479;DHT22;10398;52.490;13.434;2022-08-03T08:22:45;26.40;89.80
20479;DHT22;10398;52.490;13.434;2022-08-03T08:25:11;26.40;90.80
20479;DHT22;10398;52.490;13.434;2022-08-03T08:27:48;26.40;88.10
20479;DHT22;10398;52.490;13.434;2022-08-03T08:30:15;26.50;88.50
20479;DHT22;10398;52.490;13.434;2022-08-03T08:32:42;26.50;87.90
20479;DHT22;10398;52.490;13.434;2022-08-03T08:35:08;26.60;86.00
20479;DHT22;10398;52.490;13.434;2022-08-03T08:37:35;26.70;86.70
20479;DHT22;10398;52.490;13.434;2022-08-03T08:40:00;26.80;87.30
20479;DHT22;10398;52.490;13.434;2022-08-03T08:42:26;26.80;86.90
20479;DHT22;10398;52.490;13.434;2022-08-03T08:44:52;26.90;86.30
20479;DHT22;10398;52.490;13.434;2022-08-03T08:47:18;26.90;84.90
20479;DHT22;10398;52.490;13.434;2022-08-03T08:49:45;27.00;85.10
20479;DHT22;10398;52.490;13.434;2022-08-03T08:52:13;27.00;85.60
20479;DHT22;10398;52.490;13.434;2022-08-03T08:54:40;27.20;84.80
20479;DHT22;10398;52.490;13.434;2022-08-03T08:57:07;27.30;85.30
20479;DHT22;10398;52.490;13.434;2022-08-03T08:59:33;27.40;84.70
20479;DHT22;10398;52.490;13.434;2022-08-03T09:01:59;27.40;84.60
20479;DHT22;10398;52.490;13.434;2022-08-03T09:04:27;27.50;83.60
20479;DHT22;10398;52.490;13.434;2022-08-03T09:06:53;27.60;82.40
20479;DHT22;10398;52.490;13.434;2022-08-03T09:09:18;27.60;82.40
20479;DHT22;10398;52.490;13.434;2022-08-03T09:11:44;27.70;81.80
20479;DHT22;10398;52.490;13.434;2022-08-03T09:14:10;27.70;80.30
20479;DHT22;10398;52.490;13.434;2022-08-03T09:16:36;27.80;79.50
20479;DHT22;10398;52.490;13.434;2022-08-03T09:19:12;27.90;79.20
20479;DHT22;10398;52.490;13.434;2022-08-03T09:21:38;27.90;79.80
20479;DHT22;10398;52.490;13.434;2022-08-03T09:24:05;28.00;79.80
20479;DHT22;10398;52.490;13.434;2022-08-03T09:26:32;28.10;79.10
20479;DHT22;10398;52.490;13.434;2022-08-03T09:29:04;28.10;79.80
20479;DHT22;10398;52.490;13.434;2022-08-03T09:31:44;28.20;80.10
20479;DHT22;10398;52.490;13.434;2022-08-03T09:34:15;28.30;79.60
20479;DHT22;10398;52.490;13.434;2022-08-03T09:36:48;28.30;80.50
20479;DHT22;10398;52.490;13.434;2022-08-03T09:39:17;28.50;80.40
20479;DHT22;10398;52.490;13.434;2022-08-03T09:41:48;28.60;79.60
20479;DHT22;10398;52.490;13.434;2022-08-03T09:44:14;28.60;77.30
20479;DHT22;10398;52.490;13.434;2022-08-03T09:46:49;28.70;77.40
20479;DHT22;10398;52.490;13.434;2022-08-03T09:49:15;28.70;76.70
20479;DHT22;10398;52.490;13.434;2022-08-03T09:51:41;28.80;76.00
20479;DHT22;10398;52.490;13.434;2022-08-03T09:54:07;28.80;76.90
20479;DHT22;10398;52.490;13.434;2022-08-03T09:56:42;28.90;77.20
20479;DHT22;10398;52.490;13.434;2022-08-03T09:59:10;29.00;75.60
20479;DHT22;10398;52.490;13.434;2022-08-03T10:01:36;29.10;75.40
20479;DHT22;10398;52.490;13.434;2022-08-03T10:04:03;29.20;74.60
20479;DHT22;10398;52.490;13.434;2022-08-03T10:06:28;29.30;74.00
20479;DHT22;10398;52.490;13.434;2022-08-03T10:09:15;29.40;73.50
20479;DHT22;10398;52.490;13.434;2022-08-03T10:11:42;29.40;74.20
20479;DHT22;10398;52.490;13.434;2022-08-03T10:14:09;29.50;72.10
20479;DHT22;10398;52.490;13.434;2022-08-03T10:16:37;29.60;72.80
20479;DHT22;10398;52.490;13.434;2022-08-03T10:19:05;29.60;73.50
20479;DHT22;10398;52.490;13.434;2022-08-03T10:21:36;29.70;73.20
20479;DHT22;10398;52.490;13.434;2022-08-03T10:24:07;29.70;71.70
20479;DHT22;10398;52.490;13.434;2022-08-03T10:26:35;29.70;70.50
20479;DHT22;10398;52.490;13.434;2022-08-03T10:29:04;29.80;71.90
20479;DHT22;10398;52.490;13.434;2022-08-03T10:31:38;29.80;72.10
20479;DHT22;10398;52.490;13.434;2022-08-03T10:34:18;30.00;72.50
20479;DHT22;10398;52.490;13.434;2022-08-03T10:36:48;30.00;70.60
20479;DHT22;10398;52.490;13.434;2022-08-03T10:39:21;30.10;70.10
20479;DHT22;10398;52.490;13.434;2022-08-03T10:41:48;30.10;70.40
20479;DHT22;10398;52.490;13.434;2022-08-03T10:44:19;30.20;67.80
20479;DHT22;10398;52.490;13.434;2022-08-03T10:46:46;30.20;67.30
20479;DHT22;10398;52.490;13.434;2022-08-03T10:49:15;30.20;67.20
20479;DHT22;10398;52.490;13.434;2022-08-03T10:51:45;30.30;68.30
20479;DHT22;10398;52.490;13.434;2022-08-03T10:54:37;30.30;68.30
20479;DHT22;10398;52.490;13.434;2022-08-03T10:57:50;30.40;67.40
20479;DHT22;10398;52.490;13.434;2022-08-03T11:00:20;30.50;67.40
20479;DHT22;10398;52.490;13.434;2022-08-03T11:03:16;30.70;68.50
20479;DHT22;10398;52.490;13.434;2022-08-03T11:05:44;30.70;68.00
20479;DHT22;10398;52.490;13.434;2022-08-03T11:08:40;30.80;68.60
20479;DHT22;10398;52.490;13.434;2022-08-03T11:14:05;30.90;66.60
20479;DHT22;10398;52.490;13.434;2022-08-03T11:16:36;31.00;67.10
20479;DHT22;10398;52.490;13.434;2022-08-03T11:19:05;31.10;67.90
20479;DHT22;10398;52.490;13.434;2022-08-03T11:40:35;31.50;65.10
20479;DHT22;10398;52.490;13.434;2022-08-03T11:43:05;31.50;66.30
20479;DHT22;10398;52.490;13.434;2022-08-03T11:45:32;31.60;65.30
20479;DHT22;10398;52.490;13.434;2022-08-03T11:48:01;31.70;66.30
20479;DHT22;10398;52.490;13.434;2022-08-03T11:50:35;31.80;66.70
20479;DHT22;10398;52.490;13.434;2022-08-03T11:53:01;31.90;65.10
20479;DHT22;10398;52.490;13.434;2022-08-03T11:55:29;32.00;63.80
20479;DHT22;10398;52.490;13.434;2022-08-03T11:57:58;32.00;64.00
20479;DHT22;10398;52.490;13.434;2022-08-03T12:00:26;32.00;64.90
20479;DHT22;10398;52.490;13.434;2022-08-03T12:03:04;32.20;62.90
20479;DHT22;10398;52.490;13.434;2022-08-03T12:08:08;32.20;62.60
20479;DHT22;10398;52.490;13.434;2022-08-03T12:10:35;32.20;63.30
20479;DHT22;10398;52.490;13.434;2022-08-03T12:13:02;32.20;62.30
20479;DHT22;10398;52.490;13.434;2022-08-03T12:15:31;32.20;63.20
20479;DHT22;10398;52.490;13.434;2022-08-03T12:18:02;32.20;64.60
20479;DHT22;10398;52.490;13.434;2022-08-03T12:20:31;32.30;62.80
20479;DHT22;10398;52.490;13.434;2022-08-03T12:23:05;32.30;62.60
20479;DHT22;10398;52.490;13.434;2022-08-03T12:25:31;32.30;62.50
20479;DHT22;10398;52.490;13.434;2022-08-03T12:30:32;32.40;62.40
20479;DHT22;10398;52.490;13.434;2022-08-03T12:32:58;32.40;61.90
20479;DHT22;10398;52.490;13.434;2022-08-03T12:35:24;32.40;61.70
20479;DHT22;10398;52.490;13.434;2022-08-03T12:37:50;32.40;61.30
20479;DHT22;10398;52.490;13.434;2022-08-03T12:40:24;32.40;62.50
20479;DHT22;10398;52.490;13.434;2022-08-03T12:42:50;32.40;62.10
20479;DHT22;10398;52.490;13.434;2022-08-03T12:45:22;32.40;62.50
20479;DHT22;10398;52.490;13.434;2022-08-03T12:47:53;32.40;62.10
20479;DHT22;10398;52.490;13.434;2022-08-03T12:50:30;32.40;62.50
20479;DHT22;10398;52.490;13.434;2022-08-03T12:52:57;32.50;62.80
20479;DHT22;10398;52.490;13.434;2022-08-03T12:55:24;32.60;61.70
20479;DHT22;10398;52.490;13.434;2022-08-03T12:57:52;32.60;62.50
20479;DHT22;10398;52.490;13.434;2022-08-03T13:00:18;32.60;61.60
20479;DHT22;10398;52.490;13.434;2022-08-03T13:02:44;32.70;62.30
20479;DHT22;10398;52.490;13.434;2022-08-03T13:05:12;32.70;62.80
20479;DHT22;10398;52.490;13.434;2022-08-03T13:07:42;32.80;62.40
20479;DHT22;10398;52.490;13.434;2022-08-03T13:10:09;33.00;62.10
20479;DHT22;10398;52.490;13.434;2022-08-03T13:12:46;33.20;62.00
20479;DHT22;10398;52.490;13.434;2022-08-03T13:15:12;33.30;62.70
20479;DHT22;10398;52.490;13.434;2022-08-03T13:17:38;33.40;61.00
20479;DHT22;10398;52.490;13.434;2022-08-03T13:20:04;33.50;60.00
20479;DHT22;10398;52.490;13.434;2022-08-03T13:22:30;33.50;59.30
20479;DHT22;10398;52.490;13.434;2022-08-03T13:24:57;33.50;59.80
20479;DHT22;10398;52.490;13.434;2022-08-03T13:27:24;33.50;60.00
20479;DHT22;10398;52.490;13.434;2022-08-03T13:29:50;33.50;60.40
20479;DHT22;10398;52.490;13.434;2022-08-03T13:32:17;33.40;59.50
20479;DHT22;10398;52.490;13.434;2022-08-03T13:34:43;33.40;59.20
20479;DHT22;10398;52.490;13.434;2022-08-03T13:37:08;33.30;59.50
20479;DHT22;10398;52.490;13.434;2022-08-03T13:39:39;33.30;59.30
20479;DHT22;10398;52.490;13.434;2022-08-03T13:42:05;33.40;61.10
20479;DHT22;10398;52.490;13.434;2022-08-03T13:44:31;33.40;61.30
20479;DHT22;10398;52.490;13.434;2022-08-03T13:46:57;33.50;60.60
20479;DHT22;10398;52.490;13.434;2022-08-03T13:49:25;33.60;60.50
20479;DHT22;10398;52.490;13.434;2022-08-03T13:51:51;33.70;60.60
20479;DHT22;10398;52.490;13.434;2022-08-03T13:54:17;33.80;60.00
20479;DHT22;10398;52.490;13.434;2022-08-03T13:56:43;33.90;59.90
20479;DHT22;10398;52.490;13.434;2022-08-03T13:59:14;33.90;58.90
20479;DHT22;10398;52.490;13.434;2022-08-03T14:01:40;33.90;58.30
20479;DHT22;10398;52.490;13.434;2022-08-03T14:04:06;33.90;58.10
20479;DHT22;10398;52.490;13.434;2022-08-03T14:06:31;33.90;58.80
20479;DHT22;10398;52.490;13.434;2022-08-03T14:08:57;33.90;58.40
20479;DHT22;10398;52.490;13.434;2022-08-03T14:11:22;33.90;58.30
20479;DHT22;10398;52.490;13.434;2022-08-03T14:13:48;33.80;58.00
20479;DHT22;10398;52.490;13.434;2022-08-03T14:16:14;33.80;58.60
20479;DHT22;10398;52.490;13.434;2022-08-03T14:18:40;33.80;58.10
20479;DHT22;10398;52.490;13.434;2022-08-03T14:21:06;33.90;58.10
20479;DHT22;10398;52.490;13.434;2022-08-03T14:23:33;33.90;58.80
20479;DHT22;10398;52.490;13.434;2022-08-03T14:25:59;34.00;58.30
20479;DHT22;10398;52.490;13.434;2022-08-03T14:28:24;34.00;58.00
20479;DHT22;10398;52.490;13.434;2022-08-03T14:30:54;34.00;57.80
20479;DHT22;10398;52.490;13.434;2022-08-03T14:33:23;34.10;57.80
20479;DHT22;10398;52.490;13.434;2022-08-03T14:35:49;34.10;57.60
20479;DHT22;10398;52.490;13.434;2022-08-03T14:38:15;34.00;57.90
20479;DHT22;10398;52.490;13.434;2022-08-03T14:40:41;34.00;57.80
20479;DHT22;10398;52.490;13.434;2022-08-03T14:43:07;34.00;57.90
20479;DHT22;10398;52.490;13.434;2022-08-03T14:45:32;34.00;57.80
20479;DHT22;10398;52.490;13.434;2022-08-03T14:47:58;34.00;57.70
20479;DHT22;10398;52.490;13.434;2022-08-03T14:50:25;34.00;57.40
20479;DHT22;10398;52.490;13.434;2022-08-03T14:52:53;34.00;57.60
20479;DHT22;10398;52.490;13.434;2022-08-03T14:55:18;34.10;56.80
20479;DHT22;10398;52.490;13.434;2022-08-03T14:57:44;34.10;56.40
20479;DHT22;10398;52.490;13.434;2022-08-03T15:00:10;34.10;56.90
20479;DHT22;10398;52.490;13.434;2022-08-03T15:02:36;34.20;57.60
20479;DHT22;10398;52.490;13.434;2022-08-03T15:05:01;34.20;56.80
20479;DHT22;10398;52.490;13.434;2022-08-03T15:07:27;34.10;56.50
20479;DHT22;10398;52.490;13.434;2022-08-03T15:09:53;34.20;57.50
20479;DHT22;10398;52.490;13.434;2022-08-03T15:12:18;34.20;56.70
20479;DHT22;10398;52.490;13.434;2022-08-03T15:14:44;34.20;56.70
20479;DHT22;10398;52.490;13.434;2022-08-03T15:17:09;34.20;57.10
20479;DHT22;10398;52.490;13.434;2022-08-03T15:19:35;34.20;56.60
20479;DHT22;10398;52.490;13.434;2022-08-03T15:22:01;34.30;57.20
20479;DHT22;10398;52.490;13.434;2022-08-03T15:24:26;34.30;57.80
20479;DHT22;10398;52.490;13.434;2022-08-03T15:26:52;34.30;56.90
20479;DHT22;10398;52.490;13.434;2022-08-03T15:29:18;34.30;56.80
20479;DHT22;10398;52.490;13.434;2022-08-03T15:31:44;34.30;57.30
20479;DHT22;10398;52.490;13.434;2022-08-03T15:34:10;34.30;57.20
20479;DHT22;10398;52.490;13.434;2022-08-03T15:36:36;34.40;57.20
20479;DHT22;10398;52.490;13.434;2022-08-03T15:39:04;34.30;57.20
20479;DHT22;10398;52.490;13.434;2022-08-03T15:41:29;34.30;57.20
20479;DHT22;10398;52.490;13.434;2022-08-03T15:43:55;34.30;57.20
20479;DHT22;10398;52.490;13.434;2022-08-03T15:46:21;34.20;57.70
20479;DHT22;10398;52.490;13.434;2022-08-03T15:48:46;34.20;57.40
20479;DHT22;10398;52.490;13.434;2022-08-03T15:51:12;34.20;56.80
20479;DHT22;10398;52.490;13.434;2022-08-03T15:53:38;34.10;57.00
20479;DHT22;10398;52.490;13.434;2022-08-03T15:56:04;34.10;57.50
20479;DHT22;10398;52.490;13.434;2022-08-03T15:58:32;34.10;56.90
20479;DHT22;10398;52.490;13.434;2022-08-03T16:00:59;34.10;57.30
20479;DHT22;10398;52.490;13.434;2022-08-03T16:03:26;34.00;57.60